sensor_id;sensor_type;location;lat;lon;timestamp;P1;durP1;ratioP1;P2;durP2;ratioP2
13085;SDS011;6609;49.882;8.664;2023-06-10T00:00:13;9.30;;;7.60;;
13085;SDS011;6609;49.882;8.664;2023-06-10T00:02:41;9.27;;;7.93;;
13085;SDS011;6609;49.882;8.664;2023-06-10T00:05:10;9.13;;;7.03;;
13085;SDS011;6609;49.882;8.664;2023-06-10T00:07:36;8.40;;;7.60;;
13085;SDS011;6609;49.882;8.664;2023-06-10T00:10:03;8.67;;;6.67;;
13085;SDS011;6609;49.882;8.664;2023-06-10T00:12:31;8.47;;;7.53;;
13085;SDS011;6609;49.882;8.664;2023-06-10T00:15:02;8.07;;;7.13;;
13085;SDS011;6609;49.882;8.664;2023-06-10T00:17:29;8.83;;;6.80;;
13085;SDS011;6609;49.882;8.664;2023-06-10T00:19:56;8.30;;;6.50;;
13085;SDS011;6609;49.882;8.664;2023-06-10T00:22:24;9.43;;;7.27;;
13085;SDS011;6609;49.882;8.664;2023-06-10T00:24:54;9.07;;;6.80;;
13085;SDS011;6609;49.882;8.664;2023-06-10T00:27:21;8.23;;;6.90;;
13085;SDS011;6609;49.882;8.664;2023-06-10T00:29:48;7.83;;;7.07;;
13085;SDS011;6609;49.882;8.664;2023-06-10T00:32:15;9.10;;;6.40;;
13085;SDS011;6609;49.882;8.664;2023-06-10T00:34:41;9.43;;;7.20;;
13085;SDS011;6609;49.882;8.664;2023-06-10T00:37:08;7.73;;;6.23;;
13085;SDS011;6609;49.882;8.664;2023-06-10T00:39:36;8.73;;;6.80;;
13085;SDS011;6609;49.882;8.664;2023-06-10T00:42:03;7.97;;;7.10;;
13085;SDS011;6609;49.882;8.664;2023-06-10T00:44:32;8.60;;;7.70;;
13085;SDS011;6609;49.882;8.664;2023-06-10T00:46:58;7.60;;;6.60;;
13085;SDS011;6609;49.882;8.664;2023-06-10T00:49:25;8.03;;;6.93;;
13085;SDS011;6609;49.882;8.664;2023-06-10T00:51:52;9.03;;;7.07;;
13085;SDS011;6609;49.882;8.664;2023-06-10T00:54:19;11.87;;;7.13;;
13085;SDS011;6609;49.882;8.664;2023-06-10T00:56:48;7.27;;;6.57;;
13085;SDS011;6609;49.882;8.664;2023-06-10T00:59:15;9.47;;;7.17;;
13085;SDS011;6609;49.882;8.664;2023-06-10T01:01:42;9.23;;;7.27;;
13085;SDS011;6609;49.882;8.664;2023-06-10T01:04:12;7.70;;;6.70;;
13085;SDS011;6609;49.882;8.664;2023-06-10T01:06:41;7.13;;;6.50;;
13085;SDS011;6609;49.882;8.664;2023-06-10T01:09:22;8.97;;;7.10;;
13085;SDS011;6609;49.882;8.664;2023-06-10T01:11:57;9.00;;;7.23;;
13085;SDS011;6609;49.882;8.664;2023-06-10T01:14:28;8.20;;;7.33;;
13085;SDS011;6609;49.882;8.664;2023-06-10T01:16:56;8.20;;;7.40;;
13085;SDS011;6609;49.882;8.664;2023-06-10T01:19:25;9.33;;;7.03;;
13085;SDS011;6609;49.882;8.664;2023-06-10T01:21:54;7.27;;;6.57;;
13085;SDS011;6609;49.882;8.664;2023-06-10T01:24:26;11.83;;;7.10;;
13085;SDS011;6609;49.882;8.664;2023-06-10T01:26:53;8.50;;;6.97;;
13085;SDS011;6609;49.882;8.664;2023-06-10T01:29:31;8.83;;;7.20;;
13085;SDS011;6609;49.882;8.664;2023-06-10T01:32:04;8.60;;;7.70;;
13085;SDS011;6609;49.882;8.664;2023-06-10T01:34:35;9.47;;;7.30;;
13085;SDS011;6609;49.882;8.664;2023-06-10T01:37:06;12.37;;;7.73;;
13085;SDS011;6609;49.882;8.664;2023-06-10T01:39:35;8.40;;;7.57;;
13085;SDS011;6609;49.882;8.664;2023-06-10T01:42:04;9.80;;;7.60;;
13085;SDS011;6609;49.882;8.664;2023-06-10T01:44:31;8.93;;;7.60;;
13085;SDS011;6609;49.882;8.664;2023-06-10T01:46:58;8.13;;;7.30;;
13085;SDS011;6609;49.882;8.664;2023-06-10T01:49:25;9.03;;;7.30;;
13085;SDS011;6609;49.882;8.664;2023-06-10T01:51:53;8.40;;;7.50;;
13085;SDS011;6609;49.882;8.664;2023-06-10T01:54:21;11.47;;;8.03;;
13085;SDS011;6609;49.882;8.664;2023-06-10T01:56:48;8.60;;;7.50;;
13085;SDS011;6609;49.882;8.664;2023-06-10T01:59:14;9.17;;;7.50;;
13085;SDS011;6609;49.882;8.664;2023-06-10T02:01:41;9.63;;;7.23;;
13085;SDS011;6609;49.882;8.664;2023-06-10T02:04:08;8.83;;;7.27;;
13085;SDS011;6609;49.882;8.664;2023-06-10T02:06:34;7.97;;;7.07;;
13085;SDS011;6609;49.882;8.664;2023-06-10T02:09:02;7.43;;;6.53;;
13085;SDS011;6609;49.882;8.664;2023-06-10T02:11:30;9.37;;;6.83;;
13085;SDS011;6609;49.882;8.664;2023-06-10T02:13:57;9.50;;;6.73;;
13085;SDS011;6609;49.882;8.664;2023-06-10T02:16:24;9.70;;;7.63;;
13085;SDS011;6609;49.882;8.664;2023-06-10T02:18:51;8.43;;;6.90;;
13085;SDS011;6609;49.882;8.664;2023-06-10T02:21:18;10.17;;;7.33;;
13085;SDS011;6609;49.882;8.664;2023-06-10T02:23:45;9.67;;;7.97;;
13085;SDS011;6609;49.882;8.664;2023-06-10T02:26:12;8.13;;;7.33;;
13085;SDS011;6609;49.882;8.664;2023-06-10T02:28:42;9.10;;;7.57;;
13085;SDS011;6609;49.882;8.664;2023-06-10T02:31:09;10.90;;;7.07;;
13085;SDS011;6609;49.882;8.664;2023-06-10T02:33:35;8.40;;;7.37;;
13085;SDS011;6609;49.882;8.664;2023-06-10T02:36:05;7.87;;;7.07;;
13085;SDS011;6609;49.882;8.664;2023-06-10T02:38:31;9.30;;;7.20;;
13085;SDS011;6609;49.882;8.664;2023-06-10T02:40:58;8.37;;;7.50;;
13085;SDS011;6609;49.882;8.664;2023-06-10T02:43:25;10.07;;;7.77;;
13085;SDS011;6609;49.882;8.664;2023-06-10T02:45:53;7.63;;;6.70;;
13085;SDS011;6609;49.882;8.664;2023-06-10T02:48:19;8.37;;;7.53;;
13085;SDS011;6609;49.882;8.664;2023-06-10T02:50:46;11.00;;;8.33;;
13085;SDS011;6609;49.882;8.664;2023-06-10T02:53:13;8.60;;;7.80;;
13085;SDS011;6609;49.882;8.664;2023-06-10T02:55:40;8.60;;;7.80;;
13085;SDS011;6609;49.882;8.664;2023-06-10T02:58:06;7.83;;;7.03;;
13085;SDS011;6609;49.882;8.664;2023-06-10T03:00:35;9.77;;;8.20;;
13085;SDS011;6609;49.882;8.664;2023-06-10T03:03:07;9.23;;;7.43;;
13085;SDS011;6609;49.882;8.664;2023-06-10T03:05:35;10.27;;;7.43;;
13085;SDS011;6609;49.882;8.664;2023-06-10T03:08:02;10.73;;;8.33;;
13085;SDS011;6609;49.882;8.664;2023-06-10T03:10:29;8.33;;;7.53;;
13085;SDS011;6609;49.882;8.664;2023-06-10T03:12:57;11.90;;;8.23;;
13085;SDS011;6609;49.882;8.664;2023-06-10T03:15:24;9.30;;;7.63;;
13085;SDS011;6609;49.882;8.664;2023-06-10T03:17:51;10.10;;;8.33;;
13085;SDS011;6609;49.882;8.664;2023-06-10T03:20:19;9.23;;;8.00;;
13085;SDS011;6609;49.882;8.664;2023-06-10T03:22:46;10.17;;;7.77;;
13085;SDS011;6609;49.882;8.664;2023-06-10T03:25:13;10.33;;;8.07;;
13085;SDS011;6609;49.882;8.664;2023-06-10T03:27:40;9.03;;;7.63;;
13085;SDS011;6609;49.882;8.664;2023-06-10T03:30:07;8.97;;;7.90;;
13085;SDS011;6609;49.882;8.664;2023-06-10T03:32:35;9.33;;;7.43;;
13085;SDS011;6609;49.882;8.664;2023-06-10T03:35:02;8.20;;;7.40;;
13085;SDS011;6609;49.882;8.664;2023-06-10T03:37:30;9.67;;;7.97;;
13085;SDS011;6609;49.882;8.664;2023-06-10T03:39:57;8.87;;;7.97;;
13085;SDS011;6609;49.882;8.664;2023-06-10T03:42:23;9.87;;;8.07;;
13085;SDS011;6609;49.882;8.664;2023-06-10T03:44:50;9.57;;;7.97;;
13085;SDS011;6609;49.882;8.664;2023-06-10T03:47:17;9.63;;;8.00;;
13085;SDS011;6609;49.882;8.664;2023-06-10T03:49:44;9.63;;;8.30;;
13085;SDS011;6609;49.882;8.664;2023-06-10T03:52:11;9.23;;;8.13;;
13085;SDS011;6609;49.882;8.664;2023-06-10T03:54:38;9.77;;;7.73;;
13085;SDS011;6609;49.882;8.664;2023-06-10T03:57:05;8.80;;;7.90;;
13085;SDS011;6609;49.882;8.664;2023-06-10T03:59:32;15.47;;;9.07;;
13085;SDS011;6609;49.882;8.664;2023-06-10T04:01:58;9.60;;;8.03;;
13085;SDS011;6609;49.882;8.664;2023-06-10T04:04:26;9.43;;;8.10;;
13085;SDS011;6609;49.882;8.664;2023-06-10T04:06:53;10.83;;;8.20;;
13085;SDS011;6609;49.882;8.664;2023-06-10T04:09:19;10.07;;;7.97;;
13085;SDS011;6609;49.882;8.664;2023-06-10T04:11:47;10.13;;;8.87;;
13085;SDS011;6609;49.882;8.664;2023-06-10T04:14:14;12.07;;;7.77;;
13085;SDS011;6609;49.882;8.664;2023-06-10T04:16:41;8.83;;;8.03;;
13085;SDS011;6609;49.882;8.664;2023-06-10T04:19:07;10.37;;;8.17;;
13085;SDS011;6609;49.882;8.664;2023-06-10T04:21:34;8.93;;;7.73;;
13085;SDS011;6609;49.882;8.664;2023-06-10T04:24:01;11.00;;;7.67;;
13085;SDS011;6609;49.882;8.664;2023-06-10T04:26:28;9.83;;;8.40;;
13085;SDS011;6609;49.882;8.664;2023-06-10T04:28:56;13.10;;;7.43;;
13085;SDS011;6609;49.882;8.664;2023-06-10T04:31:23;9.03;;;7.33;;
13085;SDS011;6609;49.882;8.664;2023-06-10T04:33:49;8.37;;;7.43;;
13085;SDS011;6609;49.882;8.664;2023-06-10T04:36:16;10.60;;;7.27;;
13085;SDS011;6609;49.882;8.664;2023-06-10T04:38:43;8.73;;;7.83;;
13085;SDS011;6609;49.882;8.664;2023-06-10T04:41:09;7.97;;;7.17;;
13085;SDS011;6609;49.882;8.664;2023-06-10T04:43:36;11.37;;;7.67;;
13085;SDS011;6609;49.882;8.664;2023-06-10T04:46:04;11.83;;;7.43;;
13085;SDS011;6609;49.882;8.664;2023-06-10T04:48:32;8.17;;;7.37;;
13085;SDS011;6609;49.882;8.664;2023-06-10T04:51:00;8.33;;;7.10;;
13085;SDS011;6609;49.882;8.664;2023-06-10T04:53:27;7.17;;;6.47;;
13085;SDS011;6609;49.882;8.664;2023-06-10T04:55:54;11.40;;;7.43;;
13085;SDS011;6609;49.882;8.664;2023-06-10T04:58:22;9.30;;;6.63;;
13085;SDS011;6609;49.882;8.664;2023-06-10T05:00:49;8.93;;;7.13;;
13085;SDS011;6609;49.882;8.664;2023-06-10T05:03:17;8.77;;;6.97;;
13085;SDS011;6609;49.882;8.664;2023-06-10T05:05:43;8.50;;;7.03;;
13085;SDS011;6609;49.882;8.664;2023-06-10T05:08:10;8.50;;;7.60;;
13085;SDS011;6609;49.882;8.664;2023-06-10T05:10:36;12.30;;;7.33;;
13085;SDS011;6609;49.882;8.664;2023-06-10T05:13:03;10.77;;;6.90;;
13085;SDS011;6609;49.882;8.664;2023-06-10T05:15:30;9.20;;;7.20;;
13085;SDS011;6609;49.882;8.664;2023-06-10T05:17:57;9.07;;;7.20;;
13085;SDS011;6609;49.882;8.664;2023-06-10T05:20:25;9.77;;;7.63;;
13085;SDS011;6609;49.882;8.664;2023-06-10T05:22:53;9.03;;;6.93;;
13085;SDS011;6609;49.882;8.664;2023-06-10T05:25:20;8.03;;;7.23;;
13085;SDS011;6609;49.882;8.664;2023-06-10T05:27:47;7.50;;;6.67;;
13085;SDS011;6609;49.882;8.664;2023-06-10T05:30:13;9.33;;;7.07;;
13085;SDS011;6609;49.882;8.664;2023-06-10T05:32:40;11.87;;;7.53;;
13085;SDS011;6609;49.882;8.664;2023-06-10T05:35:07;10.27;;;6.50;;
13085;SDS011;6609;49.882;8.664;2023-06-10T05:37:35;9.37;;;7.10;;
13085;SDS011;6609;49.882;8.664;2023-06-10T05:40:02;10.67;;;6.90;;
13085;SDS011;6609;49.882;8.664;2023-06-10T05:42:30;9.60;;;6.97;;
13085;SDS011;6609;49.882;8.664;2023-06-10T05:44:56;9.93;;;7.37;;
13085;SDS011;6609;49.882;8.664;2023-06-10T05:47:23;8.37;;;6.57;;
13085;SDS011;6609;49.882;8.664;2023-06-10T05:49:50;8.50;;;6.23;;
13085;SDS011;6609;49.882;8.664;2023-06-10T05:52:16;11.50;;;7.17;;
13085;SDS011;6609;49.882;8.664;2023-06-10T05:54:45;7.73;;;6.73;;
13085;SDS011;6609;49.882;8.664;2023-06-10T05:57:11;7.23;;;6.30;;
13085;SDS011;6609;49.882;8.664;2023-06-10T05:59:38;8.63;;;6.93;;
13085;SDS011;6609;49.882;8.664;2023-06-10T06:02:05;9.87;;;6.77;;
13085;SDS011;6609;49.882;8.664;2023-06-10T06:04:32;7.77;;;6.70;;
13085;SDS011;6609;49.882;8.664;2023-06-10T06:06:58;7.70;;;6.33;;
13085;SDS011;6609;49.882;8.664;2023-06-10T06:09:25;8.33;;;6.07;;
13085;SDS011;6609;49.882;8.664;2023-06-10T06:11:53;7.73;;;6.90;;
13085;SDS011;6609;49.882;8.664;2023-06-10T06:14:20;7.13;;;6.00;;
13085;SDS011;6609;49.882;8.664;2023-06-10T06:16:46;6.83;;;6.23;;
13085;SDS011;6609;49.882;8.664;2023-06-10T06:19:13;9.43;;;6.80;;
13085;SDS011;6609;49.882;8.664;2023-06-10T06:21:40;7.63;;;6.00;;
13085;SDS011;6609;49.882;8.664;2023-06-10T06:24:07;8.47;;;6.27;;
13085;SDS011;6609;49.882;8.664;2023-06-10T06:26:34;8.00;;;6.47;;
13085;SDS011;6609;49.882;8.664;2023-06-10T06:29:02;6.67;;;6.00;;
13085;SDS011;6609;49.882;8.664;2023-06-10T06:31:28;7.70;;;6.40;;
13085;SDS011;6609;49.882;8.664;2023-06-10T06:33:55;7.30;;;5.67;;
13085;SDS011;6609;49.882;8.664;2023-06-10T06:36:22;8.83;;;6.30;;
13085;SDS011;6609;49.882;8.664;2023-06-10T06:38:49;9.97;;;6.37;;
13085;SDS011;6609;49.882;8.664;2023-06-10T06:41:15;8.60;;;6.97;;
13085;SDS011;6609;49.882;8.664;2023-06-10T06:43:42;6.57;;;5.33;;
13085;SDS011;6609;49.882;8.664;2023-06-10T06:46:10;7.23;;;6.30;;
13085;SDS011;6609;49.882;8.664;2023-06-10T06:48:36;9.30;;;6.37;;
13085;SDS011;6609;49.882;8.664;2023-06-10T06:51:03;10.80;;;5.93;;
13085;SDS011;6609;49.882;8.664;2023-06-10T06:53:30;7.07;;;5.97;;
13085;SDS011;6609;49.882;8.664;2023-06-10T06:55:56;7.93;;;5.83;;
13085;SDS011;6609;49.882;8.664;2023-06-10T06:58:23;6.53;;;5.50;;
13085;SDS011;6609;49.882;8.664;2023-06-10T07:00:50;11.37;;;6.73;;
13085;SDS011;6609;49.882;8.664;2023-06-10T07:03:18;7.27;;;6.50;;
13085;SDS011;6609;49.882;8.664;2023-06-10T07:05:44;6.90;;;6.20;;
13085;SDS011;6609;49.882;8.664;2023-06-10T07:08:11;7.37;;;5.90;;
13085;SDS011;6609;49.882;8.664;2023-06-10T07:10:38;8.27;;;6.23;;
13085;SDS011;6609;49.882;8.664;2023-06-10T07:13:04;8.97;;;6.23;;
13085;SDS011;6609;49.882;8.664;2023-06-10T07:15:31;7.30;;;6.60;;
13085;SDS011;6609;49.882;8.664;2023-06-10T07:17:58;8.27;;;6.30;;
13085;SDS011;6609;49.882;8.664;2023-06-10T07:20:26;9.23;;;6.37;;
13085;SDS011;6609;49.882;8.664;2023-06-10T07:22:53;8.03;;;6.30;;
13085;SDS011;6609;49.882;8.664;2023-06-10T07:25:19;12.17;;;7.10;;
13085;SDS011;6609;49.882;8.664;2023-06-10T07:27:46;7.10;;;6.07;;
13085;SDS011;6609;49.882;8.664;2023-06-10T07:30:13;8.33;;;6.30;;
13085;SDS011;6609;49.882;8.664;2023-06-10T07:32:40;8.70;;;6.50;;
13085;SDS011;6609;49.882;8.664;2023-06-10T07:35:07;7.47;;;6.50;;
13085;SDS011;6609;49.882;8.664;2023-06-10T07:37:36;9.67;;;5.83;;
13085;SDS011;6609;49.882;8.664;2023-06-10T07:40:03;9.80;;;5.30;;
13085;SDS011;6609;49.882;8.664;2023-06-10T07:42:31;6.63;;;5.50;;
13085;SDS011;6609;49.882;8.664;2023-06-10T07:44:58;6.77;;;6.03;;
13085;SDS011;6609;49.882;8.664;2023-06-10T07:47:24;8.00;;;5.60;;
13085;SDS011;6609;49.882;8.664;2023-06-10T08:27:39;10.23;;;6.13;;
13085;SDS011;6609;49.882;8.664;2023-06-10T08:30:06;6.97;;;6.07;;
13085;SDS011;6609;49.882;8.664;2023-06-10T08:32:35;9.03;;;6.90;;
13085;SDS011;6609;49.882;8.664;2023-06-10T08:35:02;9.43;;;6.60;;
13085;SDS011;6609;49.882;8.664;2023-06-10T08:37:29;6.67;;;5.97;;
13085;SDS011;6609;49.882;8.664;2023-06-10T08:39:56;6.37;;;5.77;;
13085;SDS011;6609;49.882;8.664;2023-06-10T08:42:24;7.97;;;6.13;;
13085;SDS011;6609;49.882;8.664;2023-06-10T08:44:56;8.40;;;6.30;;
13085;SDS011;6609;49.882;8.664;2023-06-10T08:47:24;8.37;;;6.10;;
13085;SDS011;6609;49.882;8.664;2023-06-10T08:49:52;10.07;;;6.13;;
13085;SDS011;6609;49.882;8.664;2023-06-10T08:52:21;8.33;;;6.20;;
13085;SDS011;6609;49.882;8.664;2023-06-10T08:54:52;6.50;;;5.90;;
13085;SDS011;6609;49.882;8.664;2023-06-10T08:57:22;7.50;;;6.40;;
13085;SDS011;6609;49.882;8.664;2023-06-10T08:59:49;7.20;;;6.17;;
13085;SDS011;6609;49.882;8.664;2023-06-10T09:02:17;9.53;;;6.40;;
13085;SDS011;6609;49.882;8.664;2023-06-10T09:04:45;6.87;;;6.13;;
13085;SDS011;6609;49.882;8.664;2023-06-10T09:07:13;6.30;;;5.63;;
13085;SDS011;6609;49.882;8.664;2023-06-10T09:09:42;6.27;;;5.67;;
13085;SDS011;6609;49.882;8.664;2023-06-10T09:12:10;8.10;;;6.20;;
13085;SDS011;6609;49.882;8.664;2023-06-10T09:14:36;12.63;;;6.13;;
13085;SDS011;6609;49.882;8.664;2023-06-10T09:17:03;10.60;;;6.20;;
13085;SDS011;6609;49.882;8.664;2023-06-10T09:19:33;9.53;;;6.47;;
13085;SDS011;6609;49.882;8.664;2023-06-10T09:22:01;6.70;;;5.73;;
13085;SDS011;6609;49.882;8.664;2023-06-10T09:24:27;7.20;;;6.20;;
13085;SDS011;6609;49.882;8.664;2023-06-10T09:27:01;7.20;;;6.20;;
13085;SDS011;6609;49.882;8.664;2023-06-10T09:29:29;9.57;;;5.73;;
13085;SDS011;6609;49.882;8.664;2023-06-10T09:31:55;6.00;;;5.40;;
13085;SDS011;6609;49.882;8.664;2023-06-10T09:34:24;8.10;;;6.17;;
13085;SDS011;6609;49.882;8.664;2023-06-10T09:36:53;6.87;;;5.63;;
13085;SDS011;6609;49.882;8.664;2023-06-10T09:39:20;9.27;;;5.60;;
13085;SDS011;6609;49.882;8.664;2023-06-10T09:41:47;7.63;;;5.70;;
13085;SDS011;6609;49.882;8.664;2023-06-10T09:44:15;6.20;;;5.60;;
13085;SDS011;6609;49.882;8.664;2023-06-10T09:46:44;9.17;;;5.50;;
13085;SDS011;6609;49.882;8.664;2023-06-10T09:49:12;8.73;;;5.57;;
13085;SDS011;6609;49.882;8.664;2023-06-10T09:51:47;7.77;;;6.40;;
13085;SDS011;6609;49.882;8.664;2023-06-10T09:54:17;8.27;;;6.73;;
13085;SDS011;6609;49.882;8.664;2023-06-10T09:56:46;9.23;;;6.13;;
13085;SDS011;6609;49.882;8.664;2023-06-10T09:59:13;11.07;;;6.70;;
13085;SDS011;6609;49.882;8.664;2023-06-10T10:01:40;8.63;;;5.77;;
13085;SDS011;6609;49.882;8.664;2023-06-10T10:04:07;7.37;;;6.53;;
13085;SDS011;6609;49.882;8.664;2023-06-10T10:06:33;9.73;;;6.40;;
13085;SDS011;6609;49.882;8.664;2023-06-10T10:09:01;8.57;;;6.67;;
13085;SDS011;6609;49.882;8.664;2023-06-10T10:11:30;8.20;;;6.97;;
13085;SDS011;6609;49.882;8.664;2023-06-10T10:13:59;10.20;;;6.07;;
13085;SDS011;6609;49.882;8.664;2023-06-10T10:16:26;11.27;;;6.90;;
13085;SDS011;6609;49.882;8.664;2023-06-10T10:19:04;13.27;;;6.67;;
13085;SDS011;6609;49.882;8.664;2023-06-10T10:21:34;14.73;;;7.27;;
13085;SDS011;6609;49.882;8.664;2023-06-10T10:24:05;9.90;;;6.10;;
13085;SDS011;6609;49.882;8.664;2023-06-10T10:26:40;10.43;;;6.87;;
13085;SDS011;6609;49.882;8.664;2023-06-10T10:29:09;8.03;;;5.73;;
13085;SDS011;6609;49.882;8.664;2023-06-10T10:31:39;11.90;;;6.23;;
13085;SDS011;6609;49.882;8.664;2023-06-10T10:34:09;7.63;;;5.20;;
13085;SDS011;6609;49.882;8.664;2023-06-10T10:36:41;11.77;;;5.27;;
13085;SDS011;6609;49.882;8.664;2023-06-10T10:39:08;8.50;;;5.33;;
13085;SDS011;6609;49.882;8.664;2023-06-10T10:41:36;7.23;;;5.23;;
13085;SDS011;6609;49.882;8.664;2023-06-10T10:44:05;7.53;;;5.30;;
13085;SDS011;6609;49.882;8.664;2023-06-10T10:46:41;9.23;;;5.60;;
13085;SDS011;6609;49.882;8.664;2023-06-10T10:49:09;7.73;;;4.67;;
13085;SDS011;6609;49.882;8.664;2023-06-10T10:51:37;8.43;;;4.97;;
13085;SDS011;6609;49.882;8.664;2023-06-10T10:54:22;11.43;;;4.97;;
13085;SDS011;6609;49.882;8.664;2023-06-10T10:57:10;10.67;;;4.80;;
13085;SDS011;6609;49.882;8.664;2023-06-10T10:59:53;7.97;;;4.40;;
13085;SDS011;6609;49.882;8.664;2023-06-10T11:02:34;12.47;;;4.97;;
13085;SDS011;6609;49.882;8.664;2023-06-10T11:05:03;10.10;;;4.30;;
13085;SDS011;6609;49.882;8.664;2023-06-10T11:07:31;12.37;;;4.97;;
13085;SDS011;6609;49.882;8.664;2023-06-10T11:10:00;9.23;;;4.30;;
13085;SDS011;6609;49.882;8.664;2023-06-10T11:12:40;9.17;;;4.60;;
13085;SDS011;6609;49.882;8.664;2023-06-10T11:15:09;8.07;;;4.00;;
13085;SDS011;6609;49.882;8.664;2023-06-10T11:17:36;9.70;;;4.20;;
13085;SDS011;6609;49.882;8.664;2023-06-10T11:20:03;9.30;;;4.30;;
13085;SDS011;6609;49.882;8.664;2023-06-10T11:22:30;13.33;;;5.20;;
13085;SDS011;6609;49.882;8.664;2023-06-10T11:24:57;11.30;;;4.60;;
13085;SDS011;6609;49.882;8.664;2023-06-10T11:27:24;10.83;;;4.90;;
13085;SDS011;6609;49.882;8.664;2023-06-10T11:29:55;11.27;;;4.70;;
13085;SDS011;6609;49.882;8.664;2023-06-10T11:32:24;12.53;;;4.63;;
13085;SDS011;6609;49.882;8.664;2023-06-10T11:34:55;9.30;;;3.90;;
13085;SDS011;6609;49.882;8.664;2023-06-10T11:37:22;9.53;;;4.23;;
13085;SDS011;6609;49.882;8.664;2023-06-10T11:39:51;11.67;;;4.73;;
13085;SDS011;6609;49.882;8.664;2023-06-10T11:42:18;10.90;;;4.53;;
13085;SDS011;6609;49.882;8.664;2023-06-10T11:44:49;11.50;;;4.60;;
13085;SDS011;6609;49.882;8.664;2023-06-10T11:47:16;12.23;;;5.07;;
13085;SDS011;6609;49.882;8.664;2023-06-10T11:49:45;8.83;;;4.37;;
13085;SDS011;6609;49.882;8.664;2023-06-10T11:52:25;11.60;;;4.80;;
13085;SDS011;6609;49.882;8.664;2023-06-10T11:54:53;11.13;;;4.30;;
13085;SDS011;6609;49.882;8.664;2023-06-10T11:57:21;13.23;;;5.20;;
13085;SDS011;6609;49.882;8.664;2023-06-10T11:59:48;15.13;;;5.37;;
13085;SDS011;6609;49.882;8.664;2023-06-10T12:02:15;12.33;;;4.80;;
13085;SDS011;6609;49.882;8.664;2023-06-10T12:04:42;10.50;;;4.93;;
13085;SDS011;6609;49.882;8.664;2023-06-10T12:07:16;11.70;;;5.10;;
13085;SDS011;6609;49.882;8.664;2023-06-10T12:09:43;13.10;;;4.73;;
13085;SDS011;6609;49.882;8.664;2023-06-10T12:12:10;9.70;;;4.10;;
13085;SDS011;6609;49.882;8.664;2023-06-10T12:14:51;15.30;;;5.60;;
13085;SDS011;6609;49.882;8.664;2023-06-10T12:17:20;18.17;;;6.13;;
13085;SDS011;6609;49.882;8.664;2023-06-10T12:19:48;12.43;;;5.00;;
13085;SDS011;6609;49.882;8.664;2023-06-10T12:22:16;19.20;;;5.67;;
13085;SDS011;6609;49.882;8.664;2023-06-10T12:24:44;11.13;;;4.67;;
13085;SDS011;6609;49.882;8.664;2023-06-10T12:27:11;12.53;;;4.93;;
13085;SDS011;6609;49.882;8.664;2023-06-10T12:29:39;15.00;;;5.70;;
13085;SDS011;6609;49.882;8.664;2023-06-10T12:32:06;10.50;;;4.63;;
13085;SDS011;6609;49.882;8.664;2023-06-10T12:34:34;15.43;;;5.80;;
13085;SDS011;6609;49.882;8.664;2023-06-10T12:37:03;12.87;;;4.50;;
13085;SDS011;6609;49.882;8.664;2023-06-10T12:39:32;20.13;;;6.43;;
13085;SDS011;6609;49.882;8.664;2023-06-10T12:41:59;13.47;;;5.47;;
13085;SDS011;6609;49.882;8.664;2023-06-10T12:44:31;18.20;;;5.53;;
13085;SDS011;6609;49.882;8.664;2023-06-10T12:46:59;15.37;;;5.17;;
13085;SDS011;6609;49.882;8.664;2023-06-10T12:49:26;14.60;;;5.37;;
13085;SDS011;6609;49.882;8.664;2023-06-10T12:51:53;16.43;;;5.33;;
13085;SDS011;6609;49.882;8.664;2023-06-10T12:54:20;14.53;;;5.30;;
13085;SDS011;6609;49.882;8.664;2023-06-10T12:56:49;16.83;;;5.20;;
13085;SDS011;6609;49.882;8.664;2023-06-10T12:59:16;13.27;;;5.27;;
13085;SDS011;6609;49.882;8.664;2023-06-10T13:01:44;19.60;;;6.10;;
13085;SDS011;6609;49.882;8.664;2023-06-10T13:04:15;13.07;;;4.97;;
13085;SDS011;6609;49.882;8.664;2023-06-10T13:06:43;11.50;;;4.77;;
13085;SDS011;6609;49.882;8.664;2023-06-10T13:09:11;13.93;;;5.43;;
13085;SDS011;6609;49.882;8.664;2023-06-10T13:11:38;14.67;;;5.27;;
13085;SDS011;6609;49.882;8.664;2023-06-10T13:14:08;17.00;;;5.87;;
13085;SDS011;6609;49.882;8.664;2023-06-10T13:16:36;19.47;;;6.13;;
13085;SDS011;6609;49.882;8.664;2023-06-10T13:19:04;10.80;;;4.53;;
13085;SDS011;6609;49.882;8.664;2023-06-10T13:21:31;15.33;;;6.27;;
13085;SDS011;6609;49.882;8.664;2023-06-10T13:23:58;21.93;;;6.90;;
13085;SDS011;6609;49.882;8.664;2023-06-10T13:26:25;14.87;;;5.87;;
13085;SDS011;6609;49.882;8.664;2023-06-10T13:28:53;12.70;;;5.20;;
13085;SDS011;6609;49.882;8.664;2023-06-10T13:31:20;15.07;;;5.40;;
13085;SDS011;6609;49.882;8.664;2023-06-10T13:33:48;12.40;;;5.30;;
13085;SDS011;6609;49.882;8.664;2023-06-10T13:36:14;13.57;;;6.03;;
13085;SDS011;6609;49.882;8.664;2023-06-10T13:38:41;9.90;;;4.73;;
13085;SDS011;6609;49.882;8.664;2023-06-10T13:41:08;22.93;;;7.73;;
13085;SDS011;6609;49.882;8.664;2023-06-10T13:43:37;14.63;;;5.70;;
13085;SDS011;6609;49.882;8.664;2023-06-10T13:46:04;23.30;;;7.20;;
13085;SDS011;6609;49.882;8.664;2023-06-10T13:48:32;15.20;;;5.77;;
13085;SDS011;6609;49.882;8.664;2023-06-10T13:51:00;14.77;;;5.60;;
13085;SDS011;6609;49.882;8.664;2023-06-10T13:53:27;16.80;;;6.17;;
13085;SDS011;6609;49.882;8.664;2023-06-10T13:55:54;15.40;;;6.13;;
13085;SDS011;6609;49.882;8.664;2023-06-10T13:58:21;14.07;;;6.17;;
13085;SDS011;6609;49.882;8.664;2023-06-10T14:00:48;15.80;;;5.60;;
13085;SDS011;6609;49.882;8.664;2023-06-10T14:03:15;15.40;;;6.17;;
13085;SDS011;6609;49.882;8.664;2023-06-10T14:05:43;13.70;;;5.33;;
13085;SDS011;6609;49.882;8.664;2023-06-10T14:08:10;16.33;;;6.07;;
13085;SDS011;6609;49.882;8.664;2023-06-10T14:10:38;12.87;;;5.87;;
13085;SDS011;6609;49.882;8.664;2023-06-10T14:13:05;13.80;;;5.70;;
13085;SDS011;6609;49.882;8.664;2023-06-10T14:15:32;15.03;;;6.13;;
13085;SDS011;6609;49.882;8.664;2023-06-10T14:17:59;13.63;;;5.77;;
13085;SDS011;6609;49.882;8.664;2023-06-10T14:20:26;14.87;;;6.00;;
13085;SDS011;6609;49.882;8.664;2023-06-10T14:22:57;16.30;;;6.00;;
13085;SDS011;6609;49.882;8.664;2023-06-10T14:25:24;19.40;;;6.40;;
13085;SDS011;6609;49.882;8.664;2023-06-10T14:27:51;17.60;;;6.07;;
13085;SDS011;6609;49.882;8.664;2023-06-10T14:30:18;20.83;;;7.17;;
13085;SDS011;6609;49.882;8.664;2023-06-10T14:32:45;20.23;;;6.70;;
13085;SDS011;6609;49.882;8.664;2023-06-10T14:35:12;13.50;;;5.77;;
13085;SDS011;6609;49.882;8.664;2023-06-10T14:37:39;17.53;;;6.40;;
13085;SDS011;6609;49.882;8.664;2023-06-10T14:40:08;18.80;;;7.47;;
13085;SDS011;6609;49.882;8.664;2023-06-10T14:42:35;21.63;;;7.40;;
13085;SDS011;6609;49.882;8.664;2023-06-10T14:45:02;15.20;;;5.80;;
13085;SDS011;6609;49.882;8.664;2023-06-10T14:47:31;23.70;;;7.67;;
13085;SDS011;6609;49.882;8.664;2023-06-10T14:49:57;10.93;;;5.50;;
13085;SDS011;6609;49.882;8.664;2023-06-10T14:52:25;12.40;;;5.27;;
13085;SDS011;6609;49.882;8.664;2023-06-10T14:54:52;16.17;;;6.43;;
13085;SDS011;6609;49.882;8.664;2023-06-10T14:57:22;17.37;;;7.10;;
13085;SDS011;6609;49.882;8.664;2023-06-10T14:59:50;19.43;;;7.23;;
13085;SDS011;6609;49.882;8.664;2023-06-10T15:02:16;13.03;;;5.67;;
13085;SDS011;6609;49.882;8.664;2023-06-10T15:04:43;12.47;;;5.77;;
13085;SDS011;6609;49.882;8.664;2023-06-10T15:07:10;12.67;;;5.93;;
13085;SDS011;6609;49.882;8.664;2023-06-10T15:09:40;15.97;;;6.23;;
13085;SDS011;6609;49.882;8.664;2023-06-10T15:12:07;13.43;;;5.57;;
13085;SDS011;6609;49.882;8.664;2023-06-10T15:14:35;13.43;;;5.63;;
13085;SDS011;6609;49.882;8.664;2023-06-10T15:17:03;13.00;;;5.50;;
13085;SDS011;6609;49.882;8.664;2023-06-10T15:19:29;14.27;;;5.70;;
13085;SDS011;6609;49.882;8.664;2023-06-10T15:21:56;11.97;;;5.43;;
13085;SDS011;6609;49.882;8.664;2023-06-10T15:24:23;12.47;;;5.23;;
13085;SDS011;6609;49.882;8.664;2023-06-10T15:26:55;12.80;;;6.23;;
13085;SDS011;6609;49.882;8.664;2023-06-10T15:29:22;12.37;;;5.57;;
13085;SDS011;6609;49.882;8.664;2023-06-10T15:31:50;14.63;;;6.20;;
13085;SDS011;6609;49.882;8.664;2023-06-10T15:34:17;11.47;;;5.30;;
13085;SDS011;6609;49.882;8.664;2023-06-10T15:36:44;11.10;;;5.47;;